sensor_id;sensor_type;location;lat;lon;timestamp;P1;durP1;ratioP1;P2;durP2;ratioP2
51384;SDS011;37478;55.682;37.462;2024-03-29T00:00:35;15.80;;;8.65;;
51384;SDS011;37478;55.682;37.462;2024-03-29T00:03:00;19.95;;;8.50;;
51384;SDS011;37478;55.682;37.462;2024-03-29T00:05:26;22.80;;;8.35;;
51384;SDS011;37478;55.682;37.462;2024-03-29T00:07:51;19.20;;;9.15;;
51384;SDS011;37478;55.682;37.462;2024-03-29T00:10:16;17.58;;;8.23;;
51384;SDS011;37478;55.682;37.462;2024-03-29T00:12:42;15.77;;;8.52;;
51384;SDS011;37478;55.682;37.462;2024-03-29T00:15:07;15.82;;;8.02;;
51384;SDS011;37478;55.682;37.462;2024-03-29T00:17:33;15.20;;;7.82;;
51384;SDS011;37478;55.682;37.462;2024-03-29T00:19:58;13.73;;;7.63;;
51384;SDS011;37478;55.682;37.462;2024-03-29T00:22:24;13.82;;;7.78;;
51384;SDS011;37478;55.682;37.462;2024-03-29T00:24:49;21.02;;;9.00;;
51384;SDS011;37478;55.682;37.462;2024-03-29T00:27:15;15.50;;;7.95;;
51384;SDS011;37478;55.682;37.462;2024-03-29T00:29:40;21.95;;;8.63;;
51384;SDS011;37478;55.682;37.462;2024-03-29T00:32:08;16.70;;;7.93;;
51384;SDS011;37478;55.682;37.462;2024-03-29T00:34:33;14.95;;;7.70;;
51384;SDS011;37478;55.682;37.462;2024-03-29T00:36:59;18.13;;;7.50;;
51384;SDS011;37478;55.682;37.462;2024-03-29T00:39:24;19.20;;;8.18;;
51384;SDS011;37478;55.682;37.462;2024-03-29T00:41:49;15.80;;;8.43;;
51384;SDS011;37478;55.682;37.462;2024-03-29T00:44:15;17.48;;;8.15;;
51384;SDS011;37478;55.682;37.462;2024-03-29T00:46:40;22.73;;;8.68;;
51384;SDS011;37478;55.682;37.462;2024-03-29T00:49:06;19.20;;;8.85;;
51384;SDS011;37478;55.682;37.462;2024-03-29T00:51:31;16.67;;;8.10;;
51384;SDS011;37478;55.682;37.462;2024-03-29T00:53:57;18.92;;;8.02;;
51384;SDS011;37478;55.682;37.462;2024-03-29T00:56:22;16.63;;;8.73;;
51384;SDS011;37478;55.682;37.462;2024-03-29T00:58:47;17.13;;;8.60;;
51384;SDS011;37478;55.682;37.462;2024-03-29T01:01:13;20.10;;;9.50;;
51384;SDS011;37478;55.682;37.462;2024-03-29T01:03:38;21.75;;;9.20;;
51384;SDS011;37478;55.682;37.462;2024-03-29T01:06:04;17.92;;;9.20;;
51384;SDS011;37478;55.682;37.462;2024-03-29T01:08:29;14.82;;;8.45;;
51384;SDS011;37478;55.682;37.462;2024-03-29T01:10:55;18.20;;;8.45;;
51384;SDS011;37478;55.682;37.462;2024-03-29T01:13:20;15.93;;;8.32;;
51384;SDS011;37478;55.682;37.462;2024-03-29T01:15:45;18.98;;;8.82;;
51384;SDS011;37478;55.682;37.462;2024-03-29T01:18:11;15.70;;;8.02;;
51384;SDS011;37478;55.682;37.462;2024-03-29T01:20:36;17.02;;;9.25;;
51384;SDS011;37478;55.682;37.462;2024-03-29T01:23:02;17.50;;;8.73;;
51384;SDS011;37478;55.682;37.462;2024-03-29T01:25:27;20.17;;;9.00;;
51384;SDS011;37478;55.682;37.462;2024-03-29T01:27:54;17.25;;;9.05;;
51384;SDS011;37478;55.682;37.462;2024-03-29T01:30:20;19.25;;;8.48;;
51384;SDS011;37478;55.682;37.462;2024-03-29T01:32:47;24.73;;;10.32;;
51384;SDS011;37478;55.682;37.462;2024-03-29T01:35:12;18.77;;;8.95;;
51384;SDS011;37478;55.682;37.462;2024-03-29T01:37:37;21.08;;;10.48;;
51384;SDS011;37478;55.682;37.462;2024-03-29T01:40:04;20.13;;;10.27;;
51384;SDS011;37478;55.682;37.462;2024-03-29T01:42:30;23.35;;;10.15;;
51384;SDS011;37478;55.682;37.462;2024-03-29T01:44:55;15.23;;;8.77;;
51384;SDS011;37478;55.682;37.462;2024-03-29T01:47:21;26.33;;;8.77;;
51384;SDS011;37478;55.682;37.462;2024-03-29T01:49:46;20.52;;;10.30;;
51384;SDS011;37478;55.682;37.462;2024-03-29T01:52:14;19.33;;;9.57;;
51384;SDS011;37478;55.682;37.462;2024-03-29T01:54:42;22.40;;;9.98;;
51384;SDS011;37478;55.682;37.462;2024-03-29T01:57:08;22.75;;;9.98;;
51384;SDS011;37478;55.682;37.462;2024-03-29T01:59:33;23.08;;;10.43;;
51384;SDS011;37478;55.682;37.462;2024-03-29T02:01:59;21.95;;;10.65;;
51384;SDS011;37478;55.682;37.462;2024-03-29T02:04:25;20.02;;;10.23;;
51384;SDS011;37478;55.682;37.462;2024-03-29T02:06:50;24.25;;;11.10;;
51384;SDS011;37478;55.682;37.462;2024-03-29T02:09:16;26.15;;;10.57;;
51384;SDS011;37478;55.682;37.462;2024-03-29T02:11:41;19.38;;;10.43;;
51384;SDS011;37478;55.682;37.462;2024-03-29T02:14:07;18.55;;;9.57;;
51384;SDS011;37478;55.682;37.462;2024-03-29T02:16:32;19.60;;;10.15;;
51384;SDS011;37478;55.682;37.462;2024-03-29T02:18:58;20.85;;;10.23;;
51384;SDS011;37478;55.682;37.462;2024-03-29T02:21:23;20.90;;;9.95;;
51384;SDS011;37478;55.682;37.462;2024-03-29T02:23:56;20.77;;;10.13;;
51384;SDS011;37478;55.682;37.462;2024-03-29T02:26:22;23.63;;;10.18;;
51384;SDS011;37478;55.682;37.462;2024-03-29T02:28:50;23.13;;;10.77;;
51384;SDS011;37478;55.682;37.462;2024-03-29T02:31:15;22.65;;;9.60;;
51384;SDS011;37478;55.682;37.462;2024-03-29T02:33:41;19.63;;;9.90;;
51384;SDS011;37478;55.682;37.462;2024-03-29T02:36:06;21.02;;;9.90;;
51384;SDS011;37478;55.682;37.462;2024-03-29T02:38:32;20.15;;;9.07;;
51384;SDS011;37478;55.682;37.462;2024-03-29T02:40:57;20.10;;;9.75;;
51384;SDS011;37478;55.682;37.462;2024-03-29T02:43:22;19.13;;;9.77;;
51384;SDS011;37478;55.682;37.462;2024-03-29T02:45:48;25.65;;;10.15;;
51384;SDS011;37478;55.682;37.462;2024-03-29T02:48:13;22.20;;;10.50;;
51384;SDS011;37478;55.682;37.462;2024-03-29T02:50:39;22.38;;;10.02;;
51384;SDS011;37478;55.682;37.462;2024-03-29T02:53:04;24.05;;;9.98;;
51384;SDS011;37478;55.682;37.462;2024-03-29T02:55:30;21.35;;;10.68;;
51384;SDS011;37478;55.682;37.462;2024-03-29T02:57:55;24.40;;;10.98;;
51384;SDS011;37478;55.682;37.462;2024-03-29T03:00:21;24.40;;;11.07;;
51384;SDS011;37478;55.682;37.462;2024-03-29T03:02:46;27.25;;;11.13;;
51384;SDS011;37478;55.682;37.462;2024-03-29T03:05:11;22.60;;;10.93;;
51384;SDS011;37478;55.682;37.462;2024-03-29T03:07:37;23.05;;;9.95;;
51384;SDS011;37478;55.682;37.462;2024-03-29T03:10:21;20.85;;;10.60;;
51384;SDS011;37478;55.682;37.462;2024-03-29T03:13:05;18.25;;;9.88;;
51384;SDS011;37478;55.682;37.462;2024-03-29T03:15:31;21.45;;;10.38;;
51384;SDS011;37478;55.682;37.462;2024-03-29T03:17:56;22.98;;;10.75;;
51384;SDS011;37478;55.682;37.462;2024-03-29T03:20:22;23.10;;;10.93;;
51384;SDS011;37478;55.682;37.462;2024-03-29T03:22:48;20.02;;;10.27;;
51384;SDS011;37478;55.682;37.462;2024-03-29T03:25:13;21.08;;;10.68;;
51384;SDS011;37478;55.682;37.462;2024-03-29T03:27:38;23.17;;;10.38;;
51384;SDS011;37478;55.682;37.462;2024-03-29T03:30:04;19.58;;;10.43;;
51384;SDS011;37478;55.682;37.462;2024-03-29T03:32:30;21.00;;;11.35;;
51384;SDS011;37478;55.682;37.462;2024-03-29T03:34:55;20.90;;;10.65;;
51384;SDS011;37478;55.682;37.462;2024-03-29T03:37:21;18.42;;;10.73;;
51384;SDS011;37478;55.682;37.462;2024-03-29T03:39:46;18.73;;;10.52;;
51384;SDS011;37478;55.682;37.462;2024-03-29T03:42:11;19.05;;;10.70;;
51384;SDS011;37478;55.682;37.462;2024-03-29T03:44:37;25.02;;;11.35;;
51384;SDS011;37478;55.682;37.462;2024-03-29T03:47:02;18.23;;;10.82;;
51384;SDS011;37478;55.682;37.462;2024-03-29T03:49:28;25.40;;;11.38;;
51384;SDS011;37478;55.682;37.462;2024-03-29T03:51:53;21.55;;;10.13;;
51384;SDS011;37478;55.682;37.462;2024-03-29T03:54:19;26.83;;;11.20;;
51384;SDS011;37478;55.682;37.462;2024-03-29T03:56:44;20.52;;;10.23;;
51384;SDS011;37478;55.682;37.462;2024-03-29T03:59:10;22.73;;;10.50;;
51384;SDS011;37478;55.682;37.462;2024-03-29T04:01:35;20.98;;;9.63;;
51384;SDS011;37478;55.682;37.462;2024-03-29T04:04:01;23.33;;;11.15;;
51384;SDS011;37478;55.682;37.462;2024-03-29T04:06:27;21.15;;;11.38;;
51384;SDS011;37478;55.682;37.462;2024-03-29T04:08:52;20.42;;;10.02;;
51384;SDS011;37478;55.682;37.462;2024-03-29T04:11:18;27.17;;;11.30;;
51384;SDS011;37478;55.682;37.462;2024-03-29T04:13:45;21.50;;;11.00;;
51384;SDS011;37478;55.682;37.462;2024-03-29T04:16:10;24.77;;;10.63;;
51384;SDS011;37478;55.682;37.462;2024-03-29T04:18:36;23.63;;;10.50;;
51384;SDS011;37478;55.682;37.462;2024-03-29T04:21:02;20.45;;;10.38;;
51384;SDS011;37478;55.682;37.462;2024-03-29T04:23:28;21.55;;;9.88;;
51384;SDS011;37478;55.682;37.462;2024-03-29T04:25:57;22.52;;;9.32;;
51384;SDS011;37478;55.682;37.462;2024-03-29T04:28:23;18.08;;;9.68;;
51384;SDS011;37478;55.682;37.462;2024-03-29T04:30:52;27.70;;;11.07;;
51384;SDS011;37478;55.682;37.462;2024-03-29T04:33:18;18.17;;;9.25;;
51384;SDS011;37478;55.682;37.462;2024-03-29T04:35:56;20.00;;;10.32;;
51384;SDS011;37478;55.682;37.462;2024-03-29T04:38:22;20.30;;;10.27;;
51384;SDS011;37478;55.682;37.462;2024-03-29T04:40:51;19.52;;;10.75;;
51384;SDS011;37478;55.682;37.462;2024-03-29T04:43:17;22.92;;;9.73;;
51384;SDS011;37478;55.682;37.462;2024-03-29T04:45:45;18.50;;;9.27;;
51384;SDS011;37478;55.682;37.462;2024-03-29T04:48:11;16.10;;;8.85;;
51384;SDS011;37478;55.682;37.462;2024-03-29T04:50:37;26.52;;;11.00;;
51384;SDS011;37478;55.682;37.462;2024-03-29T04:53:02;23.10;;;9.88;;
51384;SDS011;37478;55.682;37.462;2024-03-29T04:55:28;18.75;;;9.27;;
51384;SDS011;37478;55.682;37.462;2024-03-29T04:57:53;22.48;;;11.07;;
51384;SDS011;37478;55.682;37.462;2024-03-29T05:00:19;16.77;;;8.77;;
51384;SDS011;37478;55.682;37.462;2024-03-29T05:02:44;15.27;;;9.18;;
51384;SDS011;37478;55.682;37.462;2024-03-29T05:05:09;26.00;;;10.48;;
51384;SDS011;37478;55.682;37.462;2024-03-29T05:07:35;24.08;;;9.60;;
51384;SDS011;37478;55.682;37.462;2024-03-29T05:10:00;21.25;;;9.90;;
51384;SDS011;37478;55.682;37.462;2024-03-29T05:12:28;19.27;;;10.23;;
51384;SDS011;37478;55.682;37.462;2024-03-29T05:14:54;21.85;;;9.27;;
51384;SDS011;37478;55.682;37.462;2024-03-29T05:17:19;17.58;;;9.50;;
51384;SDS011;37478;55.682;37.462;2024-03-29T05:19:50;16.77;;;8.75;;
51384;SDS011;37478;55.682;37.462;2024-03-29T05:22:15;21.95;;;9.90;;
51384;SDS011;37478;55.682;37.462;2024-03-29T05:24:41;24.70;;;11.70;;
51384;SDS011;37478;55.682;37.462;2024-03-29T05:27:06;24.58;;;10.77;;
51384;SDS011;37478;55.682;37.462;2024-03-29T05:29:32;18.02;;;9.80;;
51384;SDS011;37478;55.682;37.462;2024-03-29T05:31:57;22.05;;;9.55;;
51384;SDS011;37478;55.682;37.462;2024-03-29T05:34:23;18.20;;;8.98;;
51384;SDS011;37478;55.682;37.462;2024-03-29T05:36:48;22.48;;;9.82;;
51384;SDS011;37478;55.682;37.462;2024-03-29T05:39:13;24.15;;;9.50;;
51384;SDS011;37478;55.682;37.462;2024-03-29T05:41:40;19.95;;;9.13;;
51384;SDS011;37478;55.682;37.462;2024-03-29T05:44:06;16.02;;;9.65;;
51384;SDS011;37478;55.682;37.462;2024-03-29T05:46:31;17.02;;;8.73;;
51384;SDS011;37478;55.682;37.462;2024-03-29T05:48:57;30.75;;;8.93;;
51384;SDS011;37478;55.682;37.462;2024-03-29T05:51:22;17.25;;;8.93;;
51384;SDS011;37478;55.682;37.462;2024-03-29T05:53:48;23.88;;;9.00;;
51384;SDS011;37478;55.682;37.462;2024-03-29T05:56:13;16.75;;;8.68;;
51384;SDS011;37478;55.682;37.462;2024-03-29T05:58:39;19.67;;;9.73;;
51384;SDS011;37478;55.682;37.462;2024-03-29T06:01:04;22.15;;;9.15;;
51384;SDS011;37478;55.682;37.462;2024-03-29T06:03:30;18.00;;;8.93;;
51384;SDS011;37478;55.682;37.462;2024-03-29T06:05:55;18.67;;;7.88;;
51384;SDS011;37478;55.682;37.462;2024-03-29T06:08:21;16.45;;;8.45;;
51384;SDS011;37478;55.682;37.462;2024-03-29T06:10:48;15.35;;;8.32;;
51384;SDS011;37478;55.682;37.462;2024-03-29T06:13:14;17.83;;;8.43;;
51384;SDS011;37478;55.682;37.462;2024-03-29T06:15:57;18.30;;;7.43;;
51384;SDS011;37478;55.682;37.462;2024-03-29T06:18:41;19.23;;;8.65;;
51384;SDS011;37478;55.682;37.462;2024-03-29T06:21:07;15.43;;;7.57;;
51384;SDS011;37478;55.682;37.462;2024-03-29T06:23:33;19.65;;;8.02;;
51384;SDS011;37478;55.682;37.462;2024-03-29T06:25:58;15.57;;;7.82;;
51384;SDS011;37478;55.682;37.462;2024-03-29T06:28:23;16.42;;;7.88;;
51384;SDS011;37478;55.682;37.462;2024-03-29T06:30:49;19.20;;;7.95;;
51384;SDS011;37478;55.682;37.462;2024-03-29T06:33:14;16.33;;;7.25;;
51384;SDS011;37478;55.682;37.462;2024-03-29T06:35:40;13.50;;;7.72;;
51384;SDS011;37478;55.682;37.462;2024-03-29T06:38:05;17.02;;;8.65;;
51384;SDS011;37478;55.682;37.462;2024-03-29T06:40:31;14.18;;;7.50;;
51384;SDS011;37478;55.682;37.462;2024-03-29T06:42:56;31.80;;;10.30;;
51384;SDS011;37478;55.682;37.462;2024-03-29T06:45:23;18.05;;;8.25;;
51384;SDS011;37478;55.682;37.462;2024-03-29T06:47:48;21.08;;;8.07;;
51384;SDS011;37478;55.682;37.462;2024-03-29T06:50:14;21.50;;;8.00;;
51384;SDS011;37478;55.682;37.462;2024-03-29T06:52:39;17.35;;;7.82;;
51384;SDS011;37478;55.682;37.462;2024-03-29T06:55:05;16.58;;;7.82;;
51384;SDS011;37478;55.682;37.462;2024-03-29T06:57:30;16.23;;;7.40;;
51384;SDS011;37478;55.682;37.462;2024-03-29T06:59:57;11.68;;;7.43;;
51384;SDS011;37478;55.682;37.462;2024-03-29T07:02:22;16.45;;;8.00;;
51384;SDS011;37478;55.682;37.462;2024-03-29T07:04:48;13.57;;;8.10;;
51384;SDS011;37478;55.682;37.462;2024-03-29T07:07:13;15.68;;;7.60;;
51384;SDS011;37478;55.682;37.462;2024-03-29T07:09:39;14.98;;;8.23;;
51384;SDS011;37478;55.682;37.462;2024-03-29T07:12:04;16.48;;;8.55;;
51384;SDS011;37478;55.682;37.462;2024-03-29T07:14:30;15.43;;;7.38;;
51384;SDS011;37478;55.682;37.462;2024-03-29T07:16:56;18.90;;;7.85;;
51384;SDS011;37478;55.682;37.462;2024-03-29T07:19:22;16.83;;;7.55;;
51384;SDS011;37478;55.682;37.462;2024-03-29T07:21:47;13.18;;;7.68;;
51384;SDS011;37478;55.682;37.462;2024-03-29T07:24:13;13.50;;;7.53;;
51384;SDS011;37478;55.682;37.462;2024-03-29T07:26:39;19.77;;;9.43;;
51384;SDS011;37478;55.682;37.462;2024-03-29T07:29:05;17.30;;;8.35;;
51384;SDS011;37478;55.682;37.462;2024-03-29T07:31:31;17.27;;;8.63;;
51384;SDS011;37478;55.682;37.462;2024-03-29T07:33:56;21.67;;;8.35;;
51384;SDS011;37478;55.682;37.462;2024-03-29T07:36:21;16.45;;;8.40;;
51384;SDS011;37478;55.682;37.462;2024-03-29T07:38:49;15.77;;;10.23;;
51384;SDS011;37478;55.682;37.462;2024-03-29T07:41:15;13.30;;;8.20;;
51384;SDS011;37478;55.682;37.462;2024-03-29T07:43:40;12.15;;;8.35;;
51384;SDS011;37478;55.682;37.462;2024-03-29T07:46:06;13.50;;;8.07;;
51384;SDS011;37478;55.682;37.462;2024-03-29T07:48:34;18.52;;;9.00;;
51384;SDS011;37478;55.682;37.462;2024-03-29T07:50:59;18.30;;;7.75;;
51384;SDS011;37478;55.682;37.462;2024-03-29T07:53:25;15.82;;;8.68;;
51384;SDS011;37478;55.682;37.462;2024-03-29T07:55:50;18.98;;;7.72;;
51384;SDS011;37478;55.682;37.462;2024-03-29T07:58:16;15.30;;;8.40;;
51384;SDS011;37478;55.682;37.462;2024-03-29T08:00:42;15.85;;;8.40;;
51384;SDS011;37478;55.682;37.462;2024-03-29T08:03:07;17.92;;;7.85;;
51384;SDS011;37478;55.682;37.462;2024-03-29T08:05:33;16.80;;;8.60;;
51384;SDS011;37478;55.682;37.462;2024-03-29T08:07:59;15.77;;;8.45;;
51384;SDS011;37478;55.682;37.462;2024-03-29T08:10:24;15.68;;;8.98;;
51384;SDS011;37478;55.682;37.462;2024-03-29T08:12:50;15.02;;;8.20;;
51384;SDS011;37478;55.682;37.462;2024-03-29T08:15:15;14.43;;;9.10;;
51384;SDS011;37478;55.682;37.462;2024-03-29T08:17:43;21.58;;;11.88;;
51384;SDS011;37478;55.682;37.462;2024-03-29T08:20:08;18.55;;;9.40;;
51384;SDS011;37478;55.682;37.462;2024-03-29T08:22:34;19.10;;;9.40;;
51384;SDS011;37478;55.682;37.462;2024-03-29T08:24:59;15.95;;;7.93;;
51384;SDS011;37478;55.682;37.462;2024-03-29T08:27:26;16.63;;;8.50;;
51384;SDS011;37478;55.682;37.462;2024-03-29T08:29:51;17.70;;;8.27;;
51384;SDS011;37478;55.682;37.462;2024-03-29T08:32:17;19.05;;;8.88;;
51384;SDS011;37478;55.682;37.462;2024-03-29T08:34:42;17.65;;;8.07;;
51384;SDS011;37478;55.682;37.462;2024-03-29T08:37:08;14.23;;;8.98;;
51384;SDS011;37478;55.682;37.462;2024-03-29T08:39:34;16.17;;;8.25;;
51384;SDS011;37478;55.682;37.462;2024-03-29T08:42:00;19.30;;;8.70;;
51384;SDS011;37478;55.682;37.462;2024-03-29T08:44:30;16.70;;;9.07;;
51384;SDS011;37478;55.682;37.462;2024-03-29T08:46:56;16.67;;;8.55;;
51384;SDS011;37478;55.682;37.462;2024-03-29T08:49:23;18.63;;;8.45;;
51384;SDS011;37478;55.682;37.462;2024-03-29T08:51:49;15.07;;;8.23;;
51384;SDS011;37478;55.682;37.462;2024-03-29T08:54:15;17.73;;;9.60;;
51384;SDS011;37478;55.682;37.462;2024-03-29T08:56:40;19.02;;;9.00;;
51384;SDS011;37478;55.682;37.462;2024-03-29T08:59:06;17.40;;;9.02;;
51384;SDS011;37478;55.682;37.462;2024-03-29T09:01:38;17.98;;;9.57;;
51384;SDS011;37478;55.682;37.462;2024-03-29T09:04:04;14.40;;;8.48;;
51384;SDS011;37478;55.682;37.462;2024-03-29T09:06:32;19.05;;;9.85;;
51384;SDS011;37478;55.682;37.462;2024-03-29T09:08:57;19.85;;;8.90;;
51384;SDS011;37478;55.682;37.462;2024-03-29T09:11:23;19.83;;;10.30;;
51384;SDS011;37478;55.682;37.462;2024-03-29T09:13:48;14.13;;;9.13;;
51384;SDS011;37478;55.682;37.462;2024-03-29T09:16:14;19.27;;;9.40;;
51384;SDS011;37478;55.682;37.462;2024-03-29T09:18:39;18.90;;;9.60;;
51384;SDS011;37478;55.682;37.462;2024-03-29T09:21:05;19.73;;;9.02;;
51384;SDS011;37478;55.682;37.462;2024-03-29T09:23:31;14.70;;;8.32;;
51384;SDS011;37478;55.682;37.462;2024-03-29T09:25:56;18.05;;;8.75;;
51384;SDS011;37478;55.682;37.462;2024-03-29T09:28:22;14.80;;;7.53;;
51384;SDS011;37478;55.682;37.462;2024-03-29T09:30:48;14.82;;;9.07;;
51384;SDS011;37478;55.682;37.462;2024-03-29T09:33:13;17.42;;;9.10;;
51384;SDS011;37478;55.682;37.462;2024-03-29T09:35:39;17.25;;;8.02;;
51384;SDS011;37478;55.682;37.462;2024-03-29T09:38:04;19.77;;;10.18;;
51384;SDS011;37478;55.682;37.462;2024-03-29T09:40:30;19.48;;;8.57;;
51384;SDS011;37478;55.682;37.462;2024-03-29T09:42:56;16.38;;;8.93;;
51384;SDS011;37478;55.682;37.462;2024-03-29T09:45:28;14.48;;;8.80;;
51384;SDS011;37478;55.682;37.462;2024-03-29T09:47:53;17.42;;;10.07;;
51384;SDS011;37478;55.682;37.462;2024-03-29T09:50:20;23.95;;;9.93;;
51384;SDS011;37478;55.682;37.462;2024-03-29T09:52:46;19.33;;;9.98;;
51384;SDS011;37478;55.682;37.462;2024-03-29T09:55:13;20.20;;;9.88;;
51384;SDS011;37478;55.682;37.462;2024-03-29T09:57:39;16.27;;;9.38;;
51384;SDS011;37478;55.682;37.462;2024-03-29T10:00:05;19.38;;;9.45;;
51384;SDS011;37478;55.682;37.462;2024-03-29T10:02:31;16.80;;;10.30;;
51384;SDS011;37478;55.682;37.462;2024-03-29T10:04:57;16.08;;;9.00;;
51384;SDS011;37478;55.682;37.462;2024-03-29T10:07:28;26.70;;;9.57;;
51384;SDS011;37478;55.682;37.462;2024-03-29T10:09:54;21.95;;;10.00;;
51384;SDS011;37478;55.682;37.462;2024-03-29T10:12:20;15.15;;;8.73;;
51384;SDS011;37478;55.682;37.462;2024-03-29T10:14:46;20.45;;;11.52;;
51384;SDS011;37478;55.682;37.462;2024-03-29T10:17:17;16.45;;;9.02;;
51384;SDS011;37478;55.682;37.462;2024-03-29T10:19:43;15.20;;;8.93;;
51384;SDS011;37478;55.682;37.462;2024-03-29T10:22:08;17.85;;;9.65;;
51384;SDS011;37478;55.682;37.462;2024-03-29T10:24:34;17.67;;;9.48;;
51384;SDS011;37478;55.682;37.462;2024-03-29T10:26:59;18.08;;;9.50;;
51384;SDS011;37478;55.682;37.462;2024-03-29T10:29:28;17.92;;;10.02;;
51384;SDS011;37478;55.682;37.462;2024-03-29T10:31:57;19.30;;;9.32;;
51384;SDS011;37478;55.682;37.462;2024-03-29T10:34:24;23.25;;;11.90;;
51384;SDS011;37478;55.682;37.462;2024-03-29T10:36:50;20.65;;;10.25;;
51384;SDS011;37478;55.682;37.462;2024-03-29T10:39:16;17.90;;;10.10;;
51384;SDS011;37478;55.682;37.462;2024-03-29T10:41:42;21.77;;;10.23;;
51384;SDS011;37478;55.682;37.462;2024-03-29T10:44:11;19.15;;;9.75;;
51384;SDS011;37478;55.682;37.462;2024-03-29T10:46:37;16.95;;;10.23;;
51384;SDS011;37478;55.682;37.462;2024-03-29T10:49:08;20.25;;;10.30;;
51384;SDS011;37478;55.682;37.462;2024-03-29T10:51:39;18.77;;;9.70;;
51384;SDS011;37478;55.682;37.462;2024-03-29T10:54:08;16.50;;;10.45;;
51384;SDS011;37478;55.682;37.462;2024-03-29T10:56:35;18.30;;;10.60;;
51384;SDS011;37478;55.682;37.462;2024-03-29T10:59:01;21.35;;;10.35;;
51384;SDS011;37478;55.682;37.462;2024-03-29T11:01:31;18.33;;;10.25;;
51384;SDS011;37478;55.682;37.462;2024-03-29T11:03:58;16.25;;;10.20;;
51384;SDS011;37478;55.682;37.462;2024-03-29T11:06:28;20.17;;;10.30;;
51384;SDS011;37478;55.682;37.462;2024-03-29T11:08:54;19.25;;;10.63;;
51384;SDS011;37478;55.682;37.462;2024-03-29T11:11:21;19.35;;;10.35;;
51384;SDS011;37478;55.682;37.462;2024-03-29T11:13:56;23.08;;;11.63;;
51384;SDS011;37478;55.682;37.462;2024-03-29T11:16:23;19.55;;;9.93;;
51384;SDS011;37478;55.682;37.462;2024-03-29T11:18:50;16.92;;;9.82;;
51384;SDS011;37478;55.682;37.462;2024-03-29T11:21:16;24.45;;;10.90;;
51384;SDS011;37478;55.682;37.462;2024-03-29T11:23:52;22.52;;;12.02;;
51384;SDS011;37478;55.682;37.462;2024-03-29T11:26:18;16.42;;;10.90;;
51384;SDS011;37478;55.682;37.462;2024-03-29T11:28:51;22.02;;;11.05;;
51384;SDS011;37478;55.682;37.462;2024-03-29T11:31:16;15.70;;;9.68;;
51384;SDS011;37478;55.682;37.462;2024-03-29T11:36:13;21.10;;;11.00;;
51384;SDS011;37478;55.682;37.462;2024-03-29T11:38:39;24.48;;;12.27;;
51384;SDS011;37478;55.682;37.462;2024-03-29T11:41:11;20.45;;;11.55;;
51384;SDS011;37478;55.682;37.462;2024-03-29T11:43:37;24.20;;;11.60;;
51384;SDS011;37478;55.682;37.462;2024-03-29T11:46:07;25.95;;;11.20;;
51384;SDS011;37478;55.682;37.462;2024-03-29T11:48:33;21.00;;;11.68;;
51384;SDS011;37478;55.682;37.462;2024-03-29T11:50:59;24.13;;;11.85;;
51384;SDS011;37478;55.682;37.462;2024-03-29T11:53:24;26.20;;;12.05;;
51384;SDS011;37478;55.682;37.462;2024-03-29T11:55:50;20.60;;;12.07;;
51384;SDS011;37478;55.682;37.462;2024-03-29T11:58:25;24.35;;;12.40;;
51384;SDS011;37478;55.682;37.462;2024-03-29T12:00:51;20.58;;;11.38;;
51384;SDS011;37478;55.682;37.462;2024-03-29T12:03:17;23.40;;;12.15;;
51384;SDS011;37478;55.682;37.462;2024-03-29T12:05:43;21.80;;;10.75;;
51384;SDS011;37478;55.682;37.462;2024-03-29T12:08:09;27.23;;;12.15;;
51384;SDS011;37478;55.682;37.462;2024-03-29T12:10:35;21.85;;;12.55;;
51384;SDS011;37478;55.682;37.462;2024-03-29T12:13:06;25.30;;;12.65;;
51384;SDS011;37478;55.682;37.462;2024-03-29T12:15:32;28.40;;;11.68;;
51384;SDS011;37478;55.682;37.462;2024-03-29T12:17:58;21.42;;;12.02;;
51384;SDS011;37478;55.682;37.462;2024-03-29T12:20:24;22.23;;;11.15;;
51384;SDS011;37478;55.682;37.462;2024-03-29T12:22:50;23.23;;;11.73;;
51384;SDS011;37478;55.682;37.462;2024-03-29T12:25:16;27.05;;;12.15;;
51384;SDS011;37478;55.682;37.462;2024-03-29T12:27:42;25.05;;;11.00;;
51384;SDS011;37478;55.682;37.462;2024-03-29T12:30:08;22.88;;;12.27;;
51384;SDS011;37478;55.682;37.462;2024-03-29T12:32:34;21.02;;;10.82;;
51384;SDS011;37478;55.682;37.462;2024-03-29T12:35:09;20.80;;;11.90;;
51384;SDS011;37478;55.682;37.462;2024-03-29T12:37:38;22.80;;;12.23;;
51384;SDS011;37478;55.682;37.462;2024-03-29T12:40:12;19.13;;;10.00;;
51384;SDS011;37478;55.682;37.462;2024-03-29T12:42:40;19.98;;;10.82;;
51384;SDS011;37478;55.682;37.462;2024-03-29T12:45:07;18.33;;;11.98;;
51384;SDS011;37478;55.682;37.462;2024-03-29T12:47:35;30.38;;;12.27;;
51384;SDS011;37478;55.682;37.462;2024-03-29T12:50:01;25.27;;;12.25;;
51384;SDS011;37478;55.682;37.462;2024-03-29T12:52:36;19.70;;;11.15;;
51384;SDS011;37478;55.682;37.462;2024-03-29T12:55:01;23.20;;;11.15;;
51384;SDS011;37478;55.682;37.462;2024-03-29T12:57:26;27.25;;;12.35;;
51384;SDS011;37478;55.682;37.462;2024-03-29T12:59:52;20.40;;;10.55;;
51384;SDS011;37478;55.682;37.462;2024-03-29T13:02:17;25.55;;;11.13;;
51384;SDS011;37478;55.682;37.462;2024-03-29T13:04:43;21.73;;;11.32;;
51384;SDS011;37478;55.682;37.462;2024-03-29T13:07:10;17.95;;;10.82;;
51384;SDS011;37478;55.682;37.462;2024-03-29T13:09:38;19.55;;;11.15;;
51384;SDS011;37478;55.682;37.462;2024-03-29T13:12:04;23.88;;;11.27;;
51384;SDS011;37478;55.682;37.462;2024-03-29T13:14:29;18.35;;;10.32;;
51384;SDS011;37478;55.682;37.462;2024-03-29T13:16:55;13.70;;;9.45;;
51384;SDS011;37478;55.682;37.462;2024-03-29T13:19:20;19.02;;;9.90;;
51384;SDS011;37478;55.682;37.462;2024-03-29T13:21:46;16.98;;;10.57;;
51384;SDS011;37478;55.682;37.462;2024-03-29T13:24:11;22.55;;;10.43;;
51384;SDS011;37478;55.682;37.462;2024-03-29T13:26:37;20.75;;;10.35;;
51384;SDS011;37478;55.682;37.462;2024-03-29T13:29:02;19.42;;;10.30;;
51384;SDS011;37478;55.682;37.462;2024-03-29T13:31:28;18.45;;;9.27;;
51384;SDS011;37478;55.682;37.462;2024-03-29T13:33:54;23.55;;;9.90;;
51384;SDS011;37478;55.682;37.462;2024-03-29T13:36:29;22.80;;;11.20;;
51384;SDS011;37478;55.682;37.462;2024-03-29T13:38:54;20.15;;;10.27;;
51384;SDS011;37478;55.682;37.462;2024-03-29T13:41:20;16.70;;;10.57;;
51384;SDS011;37478;55.682;37.462;2024-03-29T13:43:45;20.63;;;10.85;;
51384;SDS011;37478;55.682;37.462;2024-03-29T13:46:11;18.25;;;9.13;;
51384;SDS011;37478;55.682;37.462;2024-03-29T13:48:37;17.85;;;10.60;;
51384;SDS011;37478;55.682;37.462;2024-03-29T13:51:02;17.48;;;9.93;;
51384;SDS011;37478;55.682;37.462;2024-03-29T13:53:28;16.20;;;8.63;;
51384;SDS011;37478;55.682;37.462;2024-03-29T13:56:00;19.90;;;10.02;;
51384;SDS011;37478;55.682;37.462;2024-03-29T13:58:25;17.70;;;10.18;;
51384;SDS011;37478;55.682;37.462;2024-03-29T14:00:52;18.00;;;9.60;;
51384;SDS011;37478;55.682;37.462;2024-03-29T14:03:21;18.63;;;9.98;;
51384;SDS011;37478;55.682;37.462;2024-03-29T14:05:47;20.58;;;10.10;;
51384;SDS011;37478;55.682;37.462;2024-03-29T14:08:13;20.00;;;10.65;;
51384;SDS011;37478;55.682;37.462;2024-03-29T14:10:39;20.98;;;10.02;;
51384;SDS011;37478;55.682;37.462;2024-03-29T14:13:04;22.30;;;8.98;;